createdAt,value
2023-05-09T00:00:01.572Z,14.35
2023-05-09T00:00:53.106Z,14.34
2023-05-09T00:01:45.401Z,14.31
2023-05-09T00:02:38.614Z,14.31
2023-05-09T00:03:30.207Z,14.32
2023-05-09T00:04:22.157Z,14.30
2023-05-09T00:05:15.272Z,14.29
2023-05-09T00:06:07.465Z,14.30
2023-05-09T00:07:01.318Z,14.30
2023-05-09T00:07:52.832Z,14.29
2023-05-09T00:08:44.299Z,14.29
2023-05-09T00:09:35.913Z,14.30
2023-05-09T00:10:27.614Z,14.30
2023-05-09T00:11:19.055Z,14.28
2023-05-09T00:12:12.181Z,14.33
2023-05-09T00:13:03.949Z,14.35
2023-05-09T00:13:57.764Z,14.37
2023-05-09T00:14:51.720Z,14.31
2023-05-09T00:15:44.283Z,14.33
2023-05-09T00:16:40.314Z,14.34
2023-05-09T00:17:36.325Z,14.33
2023-05-09T00:18:28.461Z,14.27
2023-05-09T00:19:20.140Z,14.28
2023-05-09T00:20:12.812Z,14.24
2023-05-09T00:21:04.504Z,14.26
2023-05-09T00:21:56.361Z,14.28
2023-05-09T00:22:50.149Z,14.28
2023-05-09T00:23:41.575Z,14.26
2023-05-09T00:24:33.128Z,14.20
2023-05-09T00:25:24.717Z,14.14
2023-05-09T00:26:16.408Z,14.08
2023-05-09T00:27:09.820Z,14.10
2023-05-09T00:28:01.322Z,14.10
2023-05-09T00:28:53.153Z,14.06
2023-05-09T00:29:44.977Z,14.03
2023-05-09T00:30:36.478Z,13.98
2023-05-09T00:31:27.956Z,13.96
2023-05-09T00:32:19.386Z,13.92
2023-05-09T00:33:10.853Z,13.89
2023-05-09T00:34:03.529Z,13.89
2023-05-09T00:34:56.096Z,13.89
2023-05-09T00:35:47.733Z,13.87
2023-05-09T00:36:39.544Z,13.86
2023-05-09T00:37:31.476Z,13.88
2023-05-09T00:38:23.610Z,13.92
2023-05-09T00:39:17.289Z,13.94
2023-05-09T00:40:09.419Z,13.94
2023-05-09T00:41:00.941Z,13.94
2023-05-09T00:41:53.729Z,13.96
2023-05-09T00:42:45.801Z,13.98
2023-05-09T00:43:37.468Z,13.98
2023-05-09T00:44:29.184Z,14.00
2023-05-09T00:45:21.918Z,13.99
2023-05-09T00:46:13.631Z,13.98
2023-05-09T00:47:07.597Z,13.97
2023-05-09T00:48:01.532Z,13.97
2023-05-09T00:48:53.540Z,13.98
2023-05-09T00:49:45.011Z,14.02
2023-05-09T00:50:36.735Z,14.06
2023-05-09T00:51:29.246Z,14.10
2023-05-09T00:52:23.510Z,14.07
2023-05-09T00:53:14.927Z,14.11
2023-05-09T00:54:09.210Z,14.13
2023-05-09T00:55:02.596Z,14.17
2023-05-09T00:55:59.907Z,14.18
2023-05-09T00:56:51.852Z,14.16
2023-05-09T00:57:45.277Z,14.17
2023-05-09T00:58:37.665Z,14.20
2023-05-09T00:59:29.301Z,14.21
2023-05-09T01:00:21.317Z,14.22
2023-05-09T01:01:14.871Z,14.23
2023-05-09T01:02:06.937Z,14.22
2023-05-09T01:02:58.933Z,14.27
2023-05-09T01:03:51.474Z,14.26
2023-05-09T01:04:45.465Z,14.27
2023-05-09T01:05:56.693Z,14.31
2023-05-09T01:07:19.605Z,14.28
2023-05-09T01:08:24.657Z,14.27
2023-05-09T01:09:29.343Z,14.25
2023-05-09T01:10:31.546Z,14.25
2023-05-09T01:11:34.206Z,14.34
2023-05-09T01:12:57.944Z,14.32
2023-05-09T01:14:08.303Z,14.34
2023-05-09T01:15:16.183Z,14.34
2023-05-09T01:16:17.621Z,14.33
2023-05-09T01:17:36.661Z,14.35
2023-05-09T01:18:47.100Z,14.33
2023-05-09T01:19:56.785Z,14.34
2023-05-09T01:21:11.625Z,14.38
2023-05-09T01:22:08.842Z,14.42
2023-05-09T01:23:17.768Z,14.44
2023-05-09T01:24:48.193Z,14.46
2023-05-09T01:26:06.089Z,14.50
2023-05-09T01:27:15.993Z,14.47
2023-05-09T01:28:35.027Z,14.51
2023-05-09T01:29:46.097Z,14.50
2023-05-09T01:30:38.978Z,14.50
2023-05-09T01:31:34.647Z,14.47
2023-05-09T01:32:28.928Z,14.50
2023-05-09T01:33:26.496Z,14.47
2023-05-09T01:34:18.629Z,14.46
2023-05-09T01:35:14.324Z,14.48
2023-05-09T01:36:12.606Z,14.49
2023-05-09T01:37:06.969Z,14.51
2023-05-09T01:38:01.833Z,14.53
2023-05-09T01:38:54.930Z,14.54
2023-05-09T01:39:51.518Z,14.57
2023-05-09T01:40:52.870Z,14.59
2023-05-09T01:41:46.064Z,14.56
2023-05-09T01:43:00.324Z,14.57
2023-05-09T01:43:55.073Z,14.62
2023-05-09T01:44:48.782Z,14.59
2023-05-09T01:45:42.382Z,14.57
2023-05-09T01:46:36.370Z,14.57
2023-05-09T01:47:31.236Z,14.60
2023-05-09T01:48:28.817Z,14.59
2023-05-09T01:49:22.136Z,14.59
2023-05-09T01:50:16.895Z,14.56
2023-05-09T01:51:10.894Z,14.54
2023-05-09T01:52:10.006Z,14.51
2023-05-09T01:53:02.327Z,14.54
2023-05-09T01:53:58.040Z,14.59
2023-05-09T01:54:51.817Z,14.62
2023-05-09T01:55:44.366Z,14.64
2023-05-09T01:56:38.893Z,14.48
2023-05-09T01:57:31.317Z,14.52
2023-05-09T01:58:25.827Z,14.52
2023-05-09T01:59:20.399Z,14.47
2023-05-09T02:00:15.042Z,14.50
2023-05-09T02:01:10.649Z,14.52
2023-05-09T02:02:04.466Z,14.53
2023-05-09T02:02:59.430Z,14.57
2023-05-09T02:03:52.756Z,14.57
2023-05-09T02:04:46.952Z,14.60
2023-05-09T02:05:40.197Z,14.62
2023-05-09T02:06:33.082Z,14.66
2023-05-09T02:07:25.054Z,14.69
2023-05-09T02:08:23.351Z,14.62
2023-05-09T02:09:15.549Z,14.52
2023-05-09T02:10:09.541Z,14.50
2023-05-09T02:11:02.284Z,14.52
2023-05-09T02:11:54.406Z,14.56
2023-05-09T02:12:46.076Z,14.59
2023-05-09T02:13:39.933Z,14.59
2023-05-09T02:14:32.193Z,14.57
2023-05-09T02:15:24.834Z,14.61
2023-05-09T02:16:16.827Z,14.65
2023-05-09T02:17:10.588Z,14.67
2023-05-09T02:18:02.140Z,14.69
2023-05-09T02:18:53.951Z,14.69
2023-05-09T02:19:47.322Z,14.71
2023-05-09T02:20:41.167Z,14.75
2023-05-09T02:21:33.105Z,14.73
2023-05-09T02:22:24.901Z,14.73
2023-05-09T02:23:16.495Z,14.73
2023-05-09T02:24:08.173Z,14.75
2023-05-09T02:25:00.706Z,14.72
2023-05-09T02:25:55.375Z,14.75
2023-05-09T02:26:47.693Z,14.69
2023-05-09T02:27:40.979Z,14.74
2023-05-09T02:28:33.582Z,14.80
2023-05-09T02:29:40.681Z,14.76
2023-05-09T02:30:38.815Z,14.75
2023-05-09T02:31:31.615Z,14.71
2023-05-09T02:32:29.153Z,14.70
2023-05-09T02:33:20.896Z,14.72
2023-05-09T02:34:14.071Z,14.76
2023-05-09T02:35:10.360Z,14.75
2023-05-09T02:36:02.712Z,14.72
2023-05-09T02:36:54.397Z,14.72
2023-05-09T02:37:50.161Z,14.69
2023-05-09T02:38:41.820Z,14.72
2023-05-09T02:39:33.800Z,14.73
2023-05-09T02:40:29.473Z,14.76
2023-05-09T02:41:27.406Z,14.77
2023-05-09T02:42:25.409Z,14.82
2023-05-09T02:43:17.136Z,14.81
2023-05-09T02:44:11.098Z,14.78
2023-05-09T02:45:02.607Z,14.79
2023-05-09T02:45:54.392Z,14.78
2023-05-09T02:46:45.890Z,14.75
2023-05-09T02:47:38.131Z,14.74
2023-05-09T02:48:29.831Z,14.75
2023-05-09T02:49:31.429Z,14.74
2023-05-09T02:50:25.261Z,14.70
2023-05-09T02:51:16.906Z,14.66
2023-05-09T02:52:08.825Z,14.68
2023-05-09T02:53:00.368Z,14.71
2023-05-09T02:53:51.806Z,14.69
2023-05-09T02:54:43.578Z,14.70
2023-05-09T02:55:35.172Z,14.74
2023-05-09T02:56:26.723Z,14.77
2023-05-09T02:57:18.187Z,14.71
2023-05-09T02:58:14.281Z,14.70
2023-05-09T02:59:07.266Z,14.70
2023-05-09T03:00:01.404Z,14.69
2023-05-09T03:00:54.001Z,14.71
2023-05-09T03:01:46.520Z,14.68
2023-05-09T03:02:38.728Z,14.69
2023-05-09T03:03:34.595Z,14.65
2023-05-09T03:04:32.020Z,14.65
2023-05-09T03:05:25.263Z,14.63
2023-05-09T03:06:16.771Z,14.65
2023-05-09T03:07:08.344Z,14.65
2023-05-09T03:07:59.761Z,14.60
2023-05-09T03:08:51.541Z,14.59
2023-05-09T03:09:43.133Z,14.57
2023-05-09T03:10:35.637Z,14.60
2023-05-09T03:11:27.752Z,14.60
2023-05-09T03:12:19.279Z,14.61
2023-05-09T03:13:10.780Z,14.59
2023-05-09T03:14:02.999Z,14.60
2023-05-09T03:14:54.414Z,14.59
2023-05-09T03:15:45.931Z,14.60
2023-05-09T03:16:38.044Z,14.62
2023-05-09T03:17:32.866Z,14.63
2023-05-09T03:18:24.579Z,14.60
2023-05-09T03:19:16.572Z,14.60
2023-05-09T03:20:08.528Z,14.59
2023-05-09T03:21:00.370Z,14.60
2023-05-09T03:21:52.250Z,14.60
2023-05-09T03:22:48.612Z,14.57
2023-05-09T03:23:40.811Z,14.61
2023-05-09T03:24:32.582Z,14.60
2023-05-09T03:25:27.362Z,14.60
2023-05-09T03:26:24.010Z,14.60
2023-05-09T03:27:15.718Z,14.62
2023-05-09T03:28:07.137Z,14.60
2023-05-09T03:28:58.916Z,14.61
2023-05-09T03:29:50.456Z,14.64
2023-05-09T03:30:43.519Z,14.66
2023-05-09T03:31:38.194Z,14.70
2023-05-09T03:32:29.734Z,14.73
2023-05-09T03:33:21.273Z,14.69
2023-05-09T03:34:15.207Z,14.69
2023-05-09T03:35:11.012Z,14.64
2023-05-09T03:36:02.992Z,14.64
2023-05-09T03:36:54.418Z,14.69
2023-05-09T03:37:46.041Z,14.71
2023-05-09T03:38:38.704Z,14.71
2023-05-09T03:39:30.251Z,14.73
2023-05-09T03:40:24.486Z,14.72
2023-05-09T03:41:27.960Z,14.70
2023-05-09T03:42:19.545Z,14.70
2023-05-09T03:43:14.202Z,14.70
2023-05-09T03:44:06.309Z,14.72
2023-05-09T03:44:57.992Z,14.70
2023-05-09T03:45:49.438Z,14.70
2023-05-09T03:46:43.437Z,14.69
2023-05-09T03:47:35.322Z,14.68
2023-05-09T03:48:27.526Z,14.67
2023-05-09T03:49:21.709Z,14.69
2023-05-09T03:50:16.843Z,14.66
2023-05-09T03:51:09.367Z,14.63
2023-05-09T03:52:04.045Z,14.65
2023-05-09T03:52:56.858Z,14.64
2023-05-09T03:53:49.565Z,14.66
2023-05-09T03:54:41.501Z,14.62
2023-05-09T03:55:33.336Z,14.64
2023-05-09T03:56:26.587Z,14.65
2023-05-09T03:57:18.512Z,14.64
2023-05-09T03:58:13.084Z,14.64
2023-05-09T03:59:07.400Z,14.62
2023-05-09T03:59:59.190Z,14.66
2023-05-09T04:00:50.736Z,14.64
2023-05-09T04:01:47.609Z,14.67
2023-05-09T04:02:39.366Z,14.71
2023-05-09T04:03:31.938Z,14.65
2023-05-09T04:04:26.041Z,14.59
2023-05-09T04:05:18.150Z,14.55
2023-05-09T04:06:10.255Z,14.56
2023-05-09T04:07:06.538Z,14.55
2023-05-09T04:07:58.223Z,14.57
2023-05-09T04:08:49.764Z,14.55
2023-05-09T04:09:42.715Z,14.52
2023-05-09T04:10:36.606Z,14.53
2023-05-09T04:11:29.056Z,14.56
2023-05-09T04:12:23.643Z,14.52
2023-05-09T04:13:16.478Z,14.50
2023-05-09T04:14:10.332Z,14.52
2023-05-09T04:15:04.440Z,14.54
2023-05-09T04:15:56.179Z,14.51
2023-05-09T04:16:48.051Z,14.51
2023-05-09T04:17:41.376Z,14.51
2023-05-09T04:18:32.911Z,14.52
2023-05-09T04:19:24.814Z,14.55
2023-05-09T04:20:16.647Z,14.52
2023-05-09T04:21:09.396Z,14.55
2023-05-09T04:22:00.919Z,14.51
2023-05-09T04:22:52.289Z,14.54
2023-05-09T04:23:44.990Z,14.57
2023-05-09T04:24:37.392Z,14.59
2023-05-09T04:25:29.463Z,14.62
2023-05-09T04:26:21.762Z,14.63
2023-05-09T04:27:16.993Z,14.63
2023-05-09T04:28:08.661Z,14.64
2023-05-09T04:29:00.947Z,14.65
2023-05-09T04:29:53.731Z,14.68
2023-05-09T04:30:45.742Z,14.69
2023-05-09T04:31:37.640Z,14.69
2023-05-09T04:32:31.256Z,14.63
2023-05-09T04:33:24.449Z,14.62
2023-05-09T04:34:16.836Z,14.61
2023-05-09T04:35:10.291Z,14.59
2023-05-09T04:36:08.372Z,14.61
2023-05-09T04:37:00.209Z,14.62
2023-05-09T04:37:53.437Z,14.58
2023-05-09T04:38:45.124Z,14.60
2023-05-09T04:39:43.290Z,14.60
2023-05-09T04:40:41.906Z,14.64
2023-05-09T04:41:39.188Z,14.62
2023-05-09T04:42:33.650Z,14.62
2023-05-09T04:43:27.859Z,14.63
2023-05-09T04:44:21.613Z,14.62
2023-05-09T04:45:13.676Z,14.56
2023-05-09T04:46:08.206Z,14.57
2023-05-09T04:47:00.527Z,14.59
2023-05-09T04:47:52.777Z,14.57
2023-05-09T04:48:44.513Z,14.59
2023-05-09T04:49:35.944Z,14.58
2023-05-09T04:50:27.398Z,14.61
2023-05-09T04:51:19.009Z,14.59
2023-05-09T04:52:10.476Z,14.57
2023-05-09T04:53:01.917Z,14.57
2023-05-09T04:53:55.553Z,14.57
2023-05-09T04:54:52.347Z,14.60
2023-05-09T04:55:46.488Z,14.59
2023-05-09T04:56:40.449Z,14.62
2023-05-09T04:57:32.084Z,14.61
2023-05-09T04:58:26.451Z,14.60
2023-05-09T04:59:18.557Z,14.63
2023-05-09T05:00:16.804Z,14.63
2023-05-09T05:01:10.476Z,14.63
2023-05-09T05:02:02.897Z,14.64
2023-05-09T05:02:56.773Z,14.64
2023-05-09T05:03:50.813Z,14.65
2023-05-09T05:04:42.345Z,14.70
2023-05-09T05:05:40.056Z,14.70
2023-05-09T05:06:34.822Z,14.74
2023-05-09T05:07:26.668Z,14.73
2023-05-09T05:08:18.610Z,14.73
2023-05-09T05:09:11.880Z,14.75
2023-05-09T05:10:03.438Z,14.79
2023-05-09T05:10:55.153Z,14.80
2023-05-09T05:11:58.459Z,14.78
2023-05-09T05:12:52.701Z,14.86
2023-05-09T05:13:46.465Z,14.88
2023-05-09T05:14:37.886Z,14.90
2023-05-09T05:15:31.713Z,14.94
2023-05-09T05:16:23.983Z,14.92
2023-05-09T05:17:17.298Z,15.00
2023-05-09T05:18:12.038Z,15.03
2023-05-09T05:19:03.631Z,15.05
2023-05-09T05:20:01.433Z,15.09
2023-05-09T05:20:58.624Z,15.13
2023-05-09T05:21:50.515Z,15.18
2023-05-09T05:22:42.048Z,15.24
2023-05-09T05:23:36.939Z,15.21
2023-05-09T05:24:29.578Z,15.23
2023-05-09T05:25:22.372Z,15.26
2023-05-09T05:26:18.577Z,15.31
2023-05-09T05:27:11.627Z,15.33
2023-05-09T05:28:03.291Z,15.36
2023-05-09T05:28:56.425Z,15.40
2023-05-09T05:29:50.338Z,15.47
2023-05-09T05:30:42.090Z,15.49
2023-05-09T05:31:33.632Z,15.52
2023-05-09T05:32:25.198Z,15.51
2023-05-09T05:33:16.728Z,15.55
2023-05-09T05:34:08.584Z,15.58
2023-05-09T05:35:02.565Z,15.64
2023-05-09T05:35:56.794Z,15.67
2023-05-09T05:36:48.495Z,15.70
2023-05-09T05:37:41.447Z,15.72
2023-05-09T05:38:33.268Z,15.73
2023-05-09T05:39:27.199Z,15.79
2023-05-09T05:40:19.116Z,15.84
2023-05-09T05:41:15.512Z,15.88
2023-05-09T05:42:07.304Z,15.92
2023-05-09T05:42:59.191Z,15.96
2023-05-09T05:43:54.093Z,16.03
2023-05-09T05:44:46.107Z,16.04
2023-05-09T05:45:38.118Z,16.05
2023-05-09T05:46:32.165Z,16.05
2023-05-09T05:47:24.556Z,16.09
2023-05-09T05:48:19.347Z,16.19
2023-05-09T05:49:13.333Z,16.25
2023-05-09T05:50:11.771Z,16.31
2023-05-09T05:51:03.741Z,16.38
2023-05-09T05:51:56.885Z,16.46
2023-05-09T05:52:49.180Z,16.53
2023-05-09T05:53:42.641Z,16.55
2023-05-09T05:54:34.761Z,16.60
2023-05-09T05:55:26.259Z,16.56
2023-05-09T05:56:17.820Z,16.49
2023-05-09T05:57:09.304Z,16.59
2023-05-09T05:58:01.263Z,16.46
2023-05-09T05:58:53.987Z,16.50
2023-05-09T05:59:50.270Z,16.53
2023-05-09T06:00:41.964Z,16.52
2023-05-09T06:01:33.593Z,16.60
2023-05-09T06:02:25.394Z,16.62
2023-05-09T06:03:17.440Z,16.63
2023-05-09T06:04:17.085Z,16.69
2023-05-09T06:05:09.052Z,16.72
2023-05-09T06:06:00.657Z,16.77
2023-05-09T06:06:52.385Z,16.83
2023-05-09T06:07:46.732Z,16.84
2023-05-09T06:08:38.226Z,16.89
2023-05-09T06:09:29.859Z,16.93
2023-05-09T06:10:21.527Z,16.97
2023-05-09T06:11:16.506Z,16.98
2023-05-09T06:12:12.058Z,17.03
2023-05-09T06:13:06.530Z,17.04
2023-05-09T06:13:59.292Z,17.03
2023-05-09T06:14:53.152Z,17.02
2023-05-09T06:15:44.879Z,17.01
2023-05-09T06:16:36.371Z,17.03
2023-05-09T06:17:28.036Z,16.98
2023-05-09T06:18:20.880Z,16.98
2023-05-09T06:19:12.914Z,17.09
2023-05-09T06:20:05.741Z,17.06
2023-05-09T06:20:57.153Z,17.07
2023-05-09T06:21:49.534Z,17.16
2023-05-09T06:22:40.939Z,17.22
2023-05-09T06:23:33.204Z,17.29
2023-05-09T06:24:35.236Z,17.37
2023-05-09T06:25:27.003Z,17.40
2023-05-09T06:26:18.478Z,17.46
2023-05-09T06:27:10.006Z,17.42
2023-05-09T06:28:01.386Z,17.53
2023-05-09T06:28:52.827Z,17.59
2023-05-09T06:29:44.252Z,17.60
2023-05-09T06:30:35.626Z,17.67
2023-05-09T06:31:27.351Z,17.72
2023-05-09T06:32:19.484Z,17.76
2023-05-09T06:33:13.560Z,17.63
2023-05-09T06:34:08.558Z,17.64
2023-05-09T06:35:00.274Z,17.64
2023-05-09T06:35:51.730Z,17.72
2023-05-09T06:36:43.187Z,17.75
2023-05-09T06:37:34.939Z,17.71
2023-05-09T06:38:26.530Z,17.67
2023-05-09T06:39:17.977Z,17.70
2023-05-09T06:40:12.330Z,17.81
2023-05-09T06:41:04.096Z,17.81
2023-05-09T06:42:01.024Z,17.88
2023-05-09T06:42:57.057Z,17.89
2023-05-09T06:43:49.877Z,17.87
2023-05-09T06:44:41.492Z,17.61
2023-05-09T06:45:32.988Z,17.66
2023-05-09T06:46:26.641Z,17.66
2023-05-09T06:47:18.070Z,17.55
2023-05-09T06:48:11.392Z,17.64
2023-05-09T06:49:03.179Z,17.63
2023-05-09T06:49:54.676Z,17.53
2023-05-09T06:50:46.294Z,17.54
2023-05-09T06:51:38.013Z,17.53
2023-05-09T06:52:29.408Z,17.58
2023-05-09T06:53:20.925Z,17.65
2023-05-09T06:54:12.669Z,17.73
2023-05-09T06:55:04.484Z,17.74
2023-05-09T06:56:00.163Z,17.83
2023-05-09T06:56:51.841Z,17.83
2023-05-09T06:57:43.334Z,17.89
2023-05-09T06:58:34.881Z,17.99
2023-05-09T06:59:26.969Z,18.05
2023-05-09T07:00:18.646Z,17.93
2023-05-09T07:01:10.177Z,17.84
2023-05-09T07:02:01.721Z,17.84
2023-05-09T07:02:54.508Z,17.92
2023-05-09T07:03:47.444Z,17.94
2023-05-09T07:04:38.949Z,17.89
2023-05-09T07:05:30.565Z,17.78
2023-05-09T07:06:25.389Z,17.77
2023-05-09T07:07:17.263Z,17.81
2023-05-09T07:08:08.664Z,17.83
2023-05-09T07:09:00.214Z,17.96
2023-05-09T07:10:00.715Z,18.01
2023-05-09T07:10:59.181Z,18.10
2023-05-09T07:11:50.622Z,18.14
2023-05-09T07:12:42.139Z,18.20
2023-05-09T07:13:33.965Z,18.17
2023-05-09T07:14:25.705Z,18.21
2023-05-09T07:15:28.720Z,18.08
2023-05-09T07:16:29.669Z,18.04
2023-05-09T07:17:24.022Z,18.12
2023-05-09T07:18:15.784Z,18.21
2023-05-09T07:19:07.494Z,18.19
2023-05-09T07:20:03.819Z,18.22
2023-05-09T07:20:55.715Z,18.30
2023-05-09T07:21:47.137Z,18.45
2023-05-09T07:22:38.714Z,18.46
2023-05-09T07:23:32.422Z,18.52
2023-05-09T07:24:23.810Z,18.58
2023-05-09T07:25:17.730Z,18.67
2023-05-09T07:26:11.638Z,18.65
2023-05-09T07:27:03.865Z,18.75
2023-05-09T07:27:55.414Z,18.79
2023-05-09T07:28:46.879Z,18.67
2023-05-09T07:29:40.678Z,18.69
2023-05-09T07:30:32.174Z,18.54
2023-05-09T07:31:23.683Z,18.63
2023-05-09T07:32:15.553Z,18.57
2023-05-09T07:33:09.491Z,18.65
2023-05-09T07:34:01.062Z,18.74
2023-05-09T07:34:52.637Z,18.74
2023-05-09T07:35:44.258Z,18.76
2023-05-09T07:37:34.918Z,18.68
2023-05-09T07:38:26.682Z,18.77
2023-05-09T07:39:18.168Z,18.80
2023-05-09T07:40:13.279Z,18.84
2023-05-09T07:41:04.961Z,18.93
2023-05-09T07:41:56.494Z,18.98
2023-05-09T07:42:51.704Z,19.07
2023-05-09T07:43:43.184Z,19.13
2023-05-09T07:44:34.580Z,19.25
2023-05-09T07:45:26.090Z,19.20
2023-05-09T07:46:17.567Z,19.09
2023-05-09T07:47:09.373Z,19.07
2023-05-09T07:48:00.922Z,19.19
2023-05-09T07:48:52.422Z,19.35
2023-05-09T07:49:46.215Z,19.35
2023-05-09T07:50:45.116Z,19.41
2023-05-09T07:51:36.791Z,19.29
2023-05-09T07:52:28.207Z,19.44
2023-05-09T07:53:19.603Z,19.43
2023-05-09T07:54:11.208Z,19.49
2023-05-09T07:55:02.980Z,19.59
2023-05-09T07:55:55.998Z,19.56
2023-05-09T07:56:47.396Z,19.53
2023-05-09T07:57:39.785Z,19.51
2023-05-09T07:58:31.214Z,19.62
2023-05-09T07:59:24.156Z,19.65
2023-05-09T08:00:16.436Z,19.69
2023-05-09T08:01:07.886Z,19.52
2023-05-09T08:01:59.440Z,19.39
2023-05-09T08:02:51.862Z,19.40
2023-05-09T08:03:43.500Z,19.50
2023-05-09T08:04:38.331Z,19.42
2023-05-09T08:05:29.968Z,19.43
2023-05-09T08:06:21.795Z,19.47
2023-05-09T08:07:13.374Z,19.59
2023-05-09T08:08:07.827Z,19.71
2023-05-09T08:09:01.564Z,19.84
2023-05-09T08:09:55.632Z,19.82
2023-05-09T08:10:47.046Z,19.94
2023-05-09T08:11:38.575Z,19.99
2023-05-09T08:12:30.018Z,20.13
2023-05-09T08:13:22.387Z,20.24
2023-05-09T08:14:15.028Z,20.19
2023-05-09T08:15:07.606Z,20.25
2023-05-09T08:16:02.267Z,20.29
2023-05-09T08:16:54.222Z,20.31
2023-05-09T08:17:45.800Z,20.20
2023-05-09T08:18:37.332Z,20.00
2023-05-09T08:19:28.793Z,19.75
2023-05-09T08:20:21.530Z,19.75
2023-05-09T08:21:13.453Z,19.78
2023-05-09T08:22:04.922Z,19.79
2023-05-09T08:22:56.367Z,19.71
2023-05-09T08:23:48.034Z,19.78
2023-05-09T08:24:39.732Z,19.87
2023-05-09T08:25:33.864Z,19.80
2023-05-09T08:26:27.168Z,19.80
2023-05-09T08:27:18.620Z,19.82
2023-05-09T08:28:10.212Z,19.77
2023-05-09T08:29:01.978Z,19.84
2023-05-09T08:29:53.488Z,19.92
2023-05-09T08:30:44.946Z,19.93
2023-05-09T08:31:36.454Z,19.97
2023-05-09T08:32:29.988Z,19.80
2023-05-09T08:33:21.500Z,19.83
2023-05-09T08:34:12.971Z,19.85
2023-05-09T08:35:04.979Z,19.82
2023-05-09T08:35:56.595Z,19.70
2023-05-09T08:36:48.584Z,19.71
2023-05-09T08:37:44.805Z,19.77
2023-05-09T08:38:40.357Z,19.80
2023-05-09T08:39:34.850Z,19.86
2023-05-09T08:40:26.409Z,19.90
2023-05-09T08:41:19.716Z,19.91
2023-05-09T08:42:15.735Z,19.90
2023-05-09T08:43:07.858Z,19.90
2023-05-09T08:43:59.688Z,19.97
2023-05-09T08:44:51.138Z,19.95
2023-05-09T08:45:49.720Z,19.90
2023-05-09T08:46:47.785Z,19.95
2023-05-09T08:47:40.001Z,20.02
2023-05-09T08:48:35.990Z,20.07
2023-05-09T08:49:28.079Z,20.14
2023-05-09T08:50:20.962Z,20.19
2023-05-09T08:51:13.941Z,20.27
2023-05-09T08:52:06.111Z,20.40
2023-05-09T08:52:58.787Z,20.52
2023-05-09T08:53:52.216Z,20.51
2023-05-09T08:54:44.166Z,20.57
2023-05-09T08:55:36.024Z,20.56
2023-05-09T08:56:27.596Z,20.48
2023-05-09T08:57:19.340Z,20.54
2023-05-09T08:58:14.303Z,20.57
2023-05-09T08:59:06.559Z,20.55
2023-05-09T09:00:00.234Z,20.50
2023-05-09T09:00:53.746Z,20.38
2023-05-09T09:01:46.693Z,20.38
2023-05-09T09:02:43.781Z,20.39
2023-05-09T09:03:37.912Z,20.44
2023-05-09T09:04:29.799Z,20.45
2023-05-09T09:05:39.994Z,20.35
2023-05-09T09:06:34.838Z,20.19
2023-05-09T09:07:32.982Z,20.18
2023-05-09T09:08:27.899Z,20.08
2023-05-09T09:09:21.966Z,20.05
2023-05-09T09:10:13.784Z,20.12
2023-05-09T09:11:05.688Z,20.18
2023-05-09T09:11:58.026Z,20.15
2023-05-09T09:12:53.141Z,20.20
2023-05-09T09:13:47.515Z,20.22
2023-05-09T09:14:46.203Z,20.25
2023-05-09T09:15:40.531Z,20.21
2023-05-09T09:16:34.576Z,20.25
2023-05-09T09:17:30.397Z,20.22
2023-05-09T09:18:30.659Z,20.24
2023-05-09T09:19:27.794Z,20.34
2023-05-09T09:20:24.547Z,20.36
2023-05-09T09:21:19.418Z,20.37
2023-05-09T09:22:19.070Z,20.31
2023-05-09T09:23:17.221Z,20.37
2023-05-09T09:24:09.476Z,20.36
2023-05-09T09:25:01.995Z,20.30
2023-05-09T09:26:02.355Z,20.29
2023-05-09T09:26:56.902Z,20.33
2023-05-09T09:27:52.849Z,20.37
2023-05-09T09:28:44.578Z,20.45
2023-05-09T09:29:38.702Z,20.48
2023-05-09T09:30:30.516Z,20.57
2023-05-09T09:31:30.159Z,20.60
2023-05-09T09:32:32.833Z,20.63
2023-05-09T09:33:26.252Z,20.58
2023-05-09T09:34:22.772Z,20.56
2023-05-09T09:35:14.150Z,20.65
2023-05-09T09:36:08.267Z,20.64
2023-05-09T09:36:59.805Z,20.71
2023-05-09T09:37:59.867Z,20.71
2023-05-09T09:39:00.307Z,20.80
2023-05-09T09:39:56.212Z,20.84
2023-05-09T09:40:57.300Z,20.96
2023-05-09T09:41:48.877Z,20.98
2023-05-09T09:42:42.908Z,21.02
2023-05-09T09:43:34.356Z,21.12
2023-05-09T09:44:25.918Z,21.18
2023-05-09T09:45:20.182Z,21.32
2023-05-09T09:46:14.133Z,21.39
2023-05-09T09:47:12.784Z,21.40
2023-05-09T09:48:11.954Z,21.37
2023-05-09T09:49:03.494Z,21.37
2023-05-09T09:49:54.879Z,21.43
2023-05-09T09:50:48.612Z,21.48
2023-05-09T09:51:40.926Z,21.52
2023-05-09T09:52:32.427Z,21.61
2023-05-09T09:53:30.063Z,21.67
2023-05-09T09:54:22.189Z,21.77
2023-05-09T09:55:13.721Z,21.87
2023-05-09T09:56:05.504Z,22.00
2023-05-09T09:56:59.175Z,22.01
2023-05-09T09:57:51.723Z,22.11
2023-05-09T09:58:45.281Z,22.10
2023-05-09T09:59:36.782Z,22.24
2023-05-09T10:00:28.770Z,22.04
2023-05-09T10:01:20.815Z,21.97
2023-05-09T10:02:12.749Z,21.82
2023-05-09T10:03:04.334Z,21.74
2023-05-09T10:03:56.139Z,21.90
2023-05-09T10:04:47.960Z,21.97
2023-05-09T10:05:40.754Z,21.82
2023-05-09T10:06:32.813Z,21.83
2023-05-09T10:07:24.336Z,21.86
2023-05-09T10:08:17.351Z,21.95
2023-05-09T10:09:10.063Z,22.06
2023-05-09T10:10:05.874Z,22.02
2023-05-09T10:11:01.927Z,22.14
2023-05-09T10:11:55.064Z,22.14
2023-05-09T10:12:47.613Z,22.18
2023-05-09T10:13:39.300Z,22.16
2023-05-09T10:14:35.356Z,22.00
2023-05-09T10:15:35.594Z,21.98
2023-05-09T10:16:43.939Z,22.13
2023-05-09T10:17:36.756Z,22.23
2023-05-09T10:18:31.050Z,22.33
2023-05-09T10:19:26.286Z,22.29
2023-05-09T10:20:18.771Z,22.18
2023-05-09T10:21:14.589Z,22.28
2023-05-09T10:22:10.386Z,22.35
2023-05-09T10:23:03.919Z,22.18
2023-05-09T10:23:56.246Z,22.19
2023-05-09T10:25:15.746Z,22.17
2023-05-09T10:26:23.400Z,22.30
2023-05-09T10:27:21.604Z,22.23
2023-05-09T10:28:18.028Z,22.13
2023-05-09T10:29:15.847Z,21.99
2023-05-09T10:30:12.181Z,21.98
2023-05-09T10:31:09.600Z,21.99
2023-05-09T10:32:15.360Z,22.11
2023-05-09T10:33:14.208Z,21.85
2023-05-09T10:34:10.560Z,22.02
2023-05-09T10:35:06.859Z,21.95
2023-05-09T10:36:01.170Z,22.02
2023-05-09T10:36:53.810Z,22.16
2023-05-09T10:37:46.250Z,22.07
2023-05-09T10:38:44.072Z,22.16
2023-05-09T10:39:37.100Z,22.13
2023-05-09T10:40:30.023Z,22.20
2023-05-09T10:41:22.517Z,22.38
2023-05-09T10:42:14.335Z,22.41
2023-05-09T10:43:08.333Z,22.27
2023-05-09T10:44:00.391Z,22.54
2023-05-09T10:44:54.009Z,22.68
2023-05-09T10:45:55.816Z,22.84
2023-05-09T10:46:48.111Z,22.94
2023-05-09T10:47:41.586Z,22.99
2023-05-09T10:48:36.457Z,22.85
2023-05-09T10:49:28.535Z,22.93
2023-05-09T10:50:21.603Z,22.77
2023-05-09T10:51:13.848Z,22.78
2023-05-09T10:52:05.299Z,22.99
2023-05-09T10:53:08.750Z,23.15
2023-05-09T10:54:00.300Z,23.28
2023-05-09T10:55:01.451Z,23.39
2023-05-09T10:55:56.422Z,23.28
2023-05-09T10:56:47.806Z,23.29
2023-05-09T10:57:39.519Z,22.91
2023-05-09T10:58:33.528Z,23.05
2023-05-09T10:59:42.850Z,23.29
2023-05-09T11:00:34.596Z,23.22
2023-05-09T11:01:38.784Z,23.40
2023-05-09T11:02:32.421Z,23.37
2023-05-09T11:03:25.947Z,23.37
2023-05-09T11:04:17.517Z,23.33
2023-05-09T11:05:20.129Z,23.16
2023-05-09T11:06:51.516Z,22.97
2023-05-09T11:07:43.554Z,23.17
2023-05-09T11:08:35.334Z,23.05
2023-05-09T11:09:36.371Z,23.18
2023-05-09T11:10:42.524Z,23.15
2023-05-09T11:11:34.232Z,23.13
2023-05-09T11:12:25.785Z,23.27
2023-05-09T11:13:23.828Z,23.31
2023-05-09T11:14:43.088Z,23.26
2023-05-09T11:15:51.873Z,23.16
2023-05-09T11:17:00.857Z,23.12
2023-05-09T11:18:07.852Z,23.28
2023-05-09T11:18:59.580Z,23.27
2023-05-09T11:19:51.228Z,23.20
2023-05-09T11:20:46.163Z,23.22
2023-05-09T11:21:37.776Z,23.12
2023-05-09T11:22:33.004Z,23.01
2023-05-09T11:23:31.264Z,23.01
2023-05-09T11:24:23.169Z,23.08
2023-05-09T11:25:16.545Z,23.22
2023-05-09T11:26:09.274Z,23.23
2023-05-09T11:27:01.367Z,23.30
2023-05-09T11:27:59.090Z,23.54
2023-05-09T11:28:56.030Z,23.73
2023-05-09T11:29:59.261Z,23.65
2023-05-09T11:30:54.871Z,23.80
2023-05-09T11:32:06.750Z,23.85
2023-05-09T11:32:59.108Z,23.94
2023-05-09T11:33:56.247Z,24.05
2023-05-09T11:34:49.220Z,24.14
2023-05-09T11:35:43.940Z,24.24
2023-05-09T11:36:36.820Z,24.32
2023-05-09T11:37:33.282Z,24.32
2023-05-09T11:38:26.742Z,24.45